createdAt,value
2023-04-01T00:01:03.044Z,9.09
2023-04-01T00:03:30.262Z,9.13
2023-04-01T00:05:58.914Z,9.15
2023-04-01T00:08:27.097Z,9.15
2023-04-01T00:10:54.151Z,9.16
2023-04-01T00:13:20.690Z,9.15
2023-04-01T00:15:47.556Z,9.16
2023-04-01T00:18:14.715Z,9.15
2023-04-01T00:20:46.054Z,9.15
2023-04-01T00:23:12.597Z,9.17
2023-04-01T00:25:39.016Z,9.16
2023-04-01T00:28:05.385Z,9.20
2023-04-01T00:30:31.774Z,9.17
2023-04-01T00:32:58.312Z,9.12
2023-04-01T00:35:24.827Z,9.12
2023-04-01T00:37:51.754Z,9.08
2023-04-01T00:40:36.925Z,9.07
2023-04-01T00:43:04.187Z,9.12
2023-04-01T00:45:32.537Z,9.08
2023-04-01T00:48:02.429Z,9.11
2023-04-01T00:50:30.612Z,9.00
2023-04-01T00:52:58.009Z,9.03
2023-04-01T00:55:25.935Z,9.00
2023-04-01T00:57:54.815Z,8.94
2023-04-01T01:00:22.439Z,9.00
2023-04-01T01:02:51.693Z,9.01
2023-04-01T01:05:22.314Z,9.04
2023-04-01T01:08:32.186Z,8.96
2023-04-01T01:10:58.521Z,8.96
2023-04-01T01:13:39.936Z,8.94
2023-04-01T01:16:24.804Z,8.97
2023-04-01T01:19:27.351Z,9.01
2023-04-01T01:22:22.933Z,8.96
2023-04-01T01:24:55.592Z,8.90
2023-04-01T01:27:22.843Z,8.93
2023-04-01T01:30:02.552Z,8.95
2023-04-01T01:32:41.112Z,8.87
2023-04-01T01:35:21.072Z,8.87
2023-04-01T01:37:50.843Z,8.93
2023-04-01T01:40:18.442Z,8.99
2023-04-01T01:42:51.141Z,8.93
2023-04-01T01:45:22.047Z,8.95
2023-04-01T01:47:50.815Z,8.85
2023-04-01T01:50:18.661Z,8.90
2023-04-01T01:52:45.220Z,8.86
2023-04-01T01:55:30.961Z,8.88
2023-04-01T01:58:06.965Z,8.89
2023-04-01T02:00:34.896Z,8.94
2023-04-01T02:03:02.015Z,8.96
2023-04-01T02:05:31.600Z,8.92
2023-04-01T02:08:12.867Z,8.89
2023-04-01T02:10:46.383Z,8.89
2023-04-01T02:13:28.231Z,8.94
2023-04-01T02:16:01.050Z,8.83
2023-04-01T02:18:29.964Z,8.82
2023-04-01T02:21:00.029Z,8.79
2023-04-01T02:23:27.606Z,8.89
2023-04-01T02:25:54.553Z,8.84
2023-04-01T02:28:21.427Z,8.92
2023-04-01T02:30:49.370Z,8.92
2023-04-01T02:33:16.265Z,8.88
2023-04-01T02:35:42.821Z,8.85
2023-04-01T02:38:09.507Z,8.91
2023-04-01T02:40:51.298Z,8.87
2023-04-01T02:43:18.521Z,8.79
2023-04-01T02:45:44.830Z,8.86
2023-04-01T02:48:11.433Z,8.89
2023-04-01T02:50:37.793Z,8.89
2023-04-01T02:53:04.704Z,8.88
2023-04-01T02:55:32.069Z,8.90
2023-04-01T02:57:58.915Z,8.94
2023-04-01T03:00:25.959Z,8.95
2023-04-01T03:02:52.893Z,8.94
2023-04-01T03:05:19.895Z,8.92
2023-04-01T03:07:46.694Z,8.90
2023-04-01T03:10:13.256Z,8.83
2023-04-01T03:12:39.692Z,8.85
2023-04-01T03:15:10.752Z,8.80
2023-04-01T03:17:39.110Z,8.82
2023-04-01T03:20:06.867Z,8.74
2023-04-01T03:22:33.169Z,8.82
2023-04-01T03:24:59.456Z,8.79
2023-04-01T03:27:25.775Z,8.85
2023-04-01T03:29:52.157Z,8.78
2023-04-01T03:32:18.545Z,8.87
2023-04-01T03:34:44.831Z,8.83
2023-04-01T03:37:11.383Z,8.84
2023-04-01T03:39:37.685Z,8.79
2023-04-01T03:42:04.144Z,8.81
2023-04-01T03:44:34.308Z,8.79
2023-04-01T03:47:01.488Z,8.78
2023-04-01T03:49:27.994Z,8.79
2023-04-01T03:51:54.292Z,8.70
2023-04-01T03:54:21.083Z,8.71
2023-04-01T03:56:47.795Z,8.75
2023-04-01T03:59:14.500Z,8.79
2023-04-01T04:01:41.095Z,8.71
2023-04-01T04:04:07.758Z,8.73
2023-04-01T04:06:34.435Z,8.75
2023-04-01T04:09:00.802Z,8.70
2023-04-01T04:11:27.118Z,8.68
2023-04-01T04:13:54.067Z,8.67
2023-04-01T04:16:21.137Z,8.73
2023-04-01T04:18:47.499Z,8.77
2023-04-01T04:21:15.841Z,8.78
2023-04-01T04:23:42.876Z,8.71
2023-04-01T04:26:12.291Z,8.70
2023-04-01T04:28:38.966Z,8.41
2023-04-01T04:31:06.246Z,8.09
2023-04-01T04:33:33.101Z,7.82
2023-04-01T04:36:00.290Z,7.61
2023-04-01T04:38:27.495Z,7.54
2023-04-01T04:40:53.795Z,7.39
2023-04-01T04:43:20.425Z,7.30
2023-04-01T04:45:46.714Z,7.20
2023-04-01T04:48:19.173Z,7.04
2023-04-01T04:50:47.706Z,6.95
2023-04-01T04:53:15.408Z,6.87
2023-04-01T04:55:49.411Z,6.76
2023-04-01T04:58:16.256Z,6.80
2023-04-01T05:00:42.585Z,6.80
2023-04-01T05:03:09.894Z,6.67
2023-04-01T05:05:36.262Z,6.64
2023-04-01T05:08:02.941Z,6.64
2023-04-01T05:10:29.229Z,6.65
2023-04-01T05:12:55.743Z,6.48
2023-04-01T05:15:22.124Z,6.39
2023-04-01T05:17:48.436Z,6.40
2023-04-01T05:20:15.725Z,6.36
2023-04-01T05:22:42.214Z,6.31
2023-04-01T05:25:08.627Z,6.32
2023-04-01T05:27:35.322Z,6.35
2023-04-01T05:30:02.024Z,6.19
2023-04-01T05:32:28.438Z,6.11
2023-04-01T05:34:54.885Z,6.12
2023-04-01T05:37:21.174Z,6.19
2023-04-01T05:39:47.509Z,6.14
2023-04-01T05:42:14.206Z,6.09
2023-04-01T05:44:40.709Z,6.07
2023-04-01T05:47:07.025Z,5.84
2023-04-01T05:49:34.680Z,5.84
2023-04-01T05:52:00.953Z,5.89
2023-04-01T05:54:27.308Z,5.83
2023-04-01T05:56:53.674Z,5.85
2023-04-01T05:59:20.121Z,5.80
2023-04-01T06:01:46.508Z,5.72
2023-04-01T06:04:17.895Z,5.68
2023-04-01T06:06:45.134Z,5.68
2023-04-01T06:09:17.695Z,5.67
2023-04-01T06:12:08.524Z,5.64
2023-04-01T06:14:40.927Z,5.67
2023-04-01T06:17:24.250Z,5.55
2023-04-01T06:20:15.631Z,5.46
2023-04-01T06:23:03.926Z,5.37
2023-04-01T06:25:56.240Z,5.25
2023-04-01T06:28:34.817Z,5.30
2023-04-01T06:31:27.597Z,5.36
2023-04-01T06:34:18.343Z,5.39
2023-04-01T06:37:00.632Z,5.34
2023-04-01T06:40:21.540Z,5.36
2023-04-01T06:43:07.719Z,5.40
2023-04-01T06:46:03.744Z,5.43
2023-04-01T06:48:48.490Z,5.30
2023-04-01T06:51:27.255Z,5.20
2023-04-01T06:54:10.107Z,5.24
2023-04-01T06:56:41.268Z,5.26
2023-04-01T06:59:18.448Z,5.22
2023-04-01T07:01:54.741Z,5.11
2023-04-01T07:04:32.162Z,5.23
2023-04-01T07:07:02.610Z,5.17
2023-04-01T07:09:35.548Z,5.19
2023-04-01T07:12:10.463Z,5.15
2023-04-01T07:14:42.238Z,5.11
2023-04-01T07:17:28.513Z,5.05
2023-04-01T07:20:18.034Z,5.07
2023-04-01T07:22:49.210Z,5.09
2023-04-01T07:25:19.467Z,4.97
2023-04-01T07:27:46.559Z,5.01
2023-04-01T07:30:19.037Z,5.06
2023-04-01T07:32:57.543Z,5.17
2023-04-01T07:35:47.753Z,4.98
2023-04-01T07:38:29.185Z,4.94
2023-04-01T07:41:13.609Z,4.89
2023-04-01T07:43:54.456Z,4.82
2023-04-01T07:46:56.079Z,4.79
2023-04-01T07:49:31.902Z,4.79
2023-04-01T07:52:05.706Z,4.77
2023-04-01T07:54:54.672Z,4.75
2023-04-01T07:57:52.579Z,4.88
2023-04-01T08:00:37.989Z,4.85
2023-04-01T08:03:34.956Z,4.89
2023-04-01T08:06:11.566Z,4.72
2023-04-01T08:08:46.121Z,4.70
2023-04-01T08:11:21.047Z,4.75
2023-04-01T08:14:07.763Z,4.91
2023-04-01T08:17:01.525Z,4.97
2023-04-01T08:19:58.456Z,5.00
2023-04-01T08:22:30.211Z,4.91
2023-04-01T08:25:00.828Z,4.82
2023-04-01T08:27:36.365Z,4.79
2023-04-01T08:30:04.998Z,4.80
2023-04-01T08:32:37.205Z,4.88
2023-04-01T08:35:21.196Z,4.89
2023-04-01T08:37:51.249Z,4.93
2023-04-01T08:40:41.287Z,4.95
2023-04-01T08:43:46.989Z,4.97
2023-04-01T08:46:36.592Z,4.99
2023-04-01T08:49:12.082Z,4.94
2023-04-01T08:52:03.047Z,4.95
2023-04-01T08:54:50.680Z,4.95
2023-04-01T08:57:25.760Z,4.99
2023-04-01T09:00:09.412Z,4.99
2023-04-01T09:03:15.934Z,4.91
2023-04-01T09:06:11.376Z,4.77
2023-04-01T09:08:46.180Z,4.85
2023-04-01T09:11:26.768Z,4.93
2023-04-01T09:14:22.490Z,4.87
2023-04-01T09:16:51.681Z,5.00
2023-04-01T09:19:42.091Z,4.99
2023-04-01T09:22:24.722Z,4.83
2023-04-01T09:25:18.392Z,4.86
2023-04-01T09:27:58.517Z,4.91
2023-04-01T09:30:45.633Z,4.85
2023-04-01T09:33:50.158Z,5.03
2023-04-01T09:36:56.895Z,5.12
2023-04-01T09:39:38.061Z,5.15
2023-04-01T09:42:42.545Z,5.21
2023-04-01T09:45:47.118Z,5.25
2023-04-01T09:48:47.807Z,5.21
2023-04-01T09:51:45.323Z,5.19
2023-04-01T09:54:33.624Z,4.99
2023-04-01T09:57:08.742Z,5.05
2023-04-01T09:59:59.296Z,5.19
2023-04-01T10:03:09.454Z,5.27
2023-04-01T10:05:38.580Z,5.14
2023-04-01T10:08:42.568Z,5.10
2023-04-01T10:11:50.449Z,5.15
2023-04-01T10:14:58.494Z,5.15
2023-04-01T10:17:52.713Z,5.09
2023-04-01T10:20:44.081Z,5.10
2023-04-01T10:23:30.648Z,5.24
2023-04-01T10:26:19.229Z,5.31
2023-04-01T10:29:14.739Z,5.22
2023-04-01T10:31:58.766Z,5.19
2023-04-01T10:34:47.001Z,5.27
2023-04-01T10:37:28.949Z,5.28
2023-04-01T10:40:13.773Z,5.29
2023-04-01T10:43:16.230Z,5.35
2023-04-01T10:46:07.580Z,5.24
2023-04-01T10:49:25.874Z,5.21
2023-04-01T10:52:06.402Z,5.23
2023-04-01T10:54:47.108Z,5.19
2023-04-01T10:57:46.369Z,5.12
2023-04-01T11:00:24.711Z,5.24
2023-04-01T11:03:06.349Z,5.25
2023-04-01T11:06:09.537Z,5.28
2023-04-01T11:09:07.901Z,5.36
2023-04-01T11:12:08.213Z,5.25
2023-04-01T11:14:56.573Z,5.29
2023-04-01T11:18:00.385Z,5.23
2023-04-01T11:20:48.030Z,5.15
2023-04-01T11:23:18.849Z,5.13
2023-04-01T11:26:17.388Z,5.21
2023-04-01T11:29:07.725Z,5.12
2023-04-01T11:31:58.845Z,5.05
2023-04-01T11:34:47.599Z,4.83
2023-04-01T11:37:35.545Z,4.84
2023-04-01T11:40:35.333Z,4.67
2023-04-01T11:43:30.085Z,4.76
2023-04-01T11:46:12.782Z,4.80
2023-04-01T11:49:08.440Z,4.85
2023-04-01T11:51:56.536Z,4.96
2023-04-01T11:54:52.254Z,4.82
2023-04-01T11:57:56.382Z,4.82
2023-04-01T12:00:35.991Z,4.84
2023-04-01T12:03:30.675Z,4.78
2023-04-01T12:06:20.037Z,4.75
2023-04-01T12:09:11.318Z,4.60
2023-04-01T12:11:58.565Z,4.60
2023-04-01T12:14:27.864Z,4.60
2023-04-01T12:17:28.201Z,4.60
2023-04-01T12:20:12.993Z,4.70
2023-04-01T12:22:54.382Z,4.70
2023-04-01T12:25:42.277Z,4.70
2023-04-01T12:28:21.321Z,4.69
2023-04-01T12:31:16.186Z,4.78
2023-04-01T12:33:48.182Z,4.76
2023-04-01T12:36:41.400Z,4.92
2023-04-01T12:39:23.868Z,4.75
2023-04-01T12:42:03.640Z,4.81
2023-04-01T12:44:52.087Z,4.90
2023-04-01T12:47:53.482Z,4.81
2023-04-01T12:50:27.888Z,4.72
2023-04-01T12:53:34.922Z,4.66
2023-04-01T12:56:04.745Z,4.63
2023-04-01T12:59:06.318Z,4.57
2023-04-01T13:02:01.109Z,4.54
2023-04-01T13:05:05.361Z,4.59
2023-04-01T13:07:38.341Z,4.66
2023-04-01T13:10:13.706Z,4.55
2023-04-01T13:12:58.645Z,4.68
2023-04-01T13:15:30.401Z,4.66
2023-04-01T13:18:05.994Z,4.59
2023-04-01T13:20:45.535Z,4.52
2023-04-01T13:23:25.696Z,4.34
2023-04-01T13:26:14.257Z,4.37
2023-04-01T13:29:10.258Z,4.44
2023-04-01T13:31:54.606Z,4.33
2023-04-01T13:34:20.845Z,4.25
2023-04-01T13:37:19.020Z,4.31
2023-04-01T13:40:14.497Z,4.44
2023-04-01T13:42:50.688Z,4.36
2023-04-01T13:45:24.300Z,4.26
2023-04-01T13:48:16.030Z,4.22
2023-04-01T13:50:54.548Z,4.22
2023-04-01T13:53:31.568Z,4.19
2023-04-01T13:56:34.444Z,4.24
2023-04-01T13:59:38.773Z,4.23
2023-04-01T14:02:42.936Z,4.29
2023-04-01T14:05:41.879Z,4.33
2023-04-01T14:08:18.272Z,4.25
2023-04-01T14:11:08.418Z,4.31
2023-04-01T14:14:01.220Z,4.29
2023-04-01T14:16:43.593Z,4.21
2023-04-01T14:19:29.729Z,4.18
2023-04-01T14:22:28.096Z,4.09
2023-04-01T14:24:57.281Z,4.10
2023-04-01T14:27:42.169Z,4.09
2023-04-01T14:30:46.116Z,4.16
2023-04-01T14:33:26.722Z,4.18
2023-04-01T14:36:11.948Z,4.18
2023-04-01T14:38:53.548Z,4.21
2023-04-01T14:41:27.120Z,4.21
2023-04-01T14:44:24.695Z,4.19
2023-04-01T14:47:24.454Z,4.23
2023-04-01T14:49:54.760Z,4.16
2023-04-01T14:52:28.927Z,4.11
2023-04-01T14:54:57.328Z,4.06
2023-04-01T14:57:29.295Z,4.03
2023-04-01T15:00:14.397Z,4.06
2023-04-01T15:02:53.228Z,4.03
2023-04-01T15:05:51.453Z,4.00
2023-04-01T15:08:31.531Z,4.04
2023-04-01T15:11:16.204Z,4.04
2023-04-01T15:13:59.792Z,4.05
2023-04-01T15:16:51.165Z,4.11
2023-04-01T15:20:01.277Z,4.11
2023-04-01T15:22:30.533Z,4.09
2023-04-01T15:25:22.244Z,3.97
2023-04-01T15:28:03.822Z,3.89
2023-04-01T15:30:36.140Z,3.84
2023-04-01T15:33:29.565Z,3.84
2023-04-01T15:36:07.053Z,3.72
2023-04-01T15:38:50.151Z,3.76
2023-04-01T15:41:41.398Z,3.74
2023-04-01T15:45:04.813Z,3.81
2023-04-01T15:47:55.841Z,3.77
2023-04-01T15:50:36.277Z,3.75
2023-04-01T15:53:24.509Z,3.68
2023-04-01T15:56:07.440Z,3.68
2023-04-01T15:58:55.756Z,3.67
2023-04-01T16:01:22.100Z,3.66
2023-04-01T16:04:12.899Z,3.71
2023-04-01T16:06:59.224Z,3.72
2023-04-01T16:09:40.006Z,3.67
2023-04-01T16:12:18.764Z,3.64
2023-04-01T16:14:58.362Z,3.67
2023-04-01T16:17:30.600Z,3.52
2023-04-01T16:20:03.822Z,3.46
2023-04-01T16:22:40.862Z,3.42
2023-04-01T16:25:19.335Z,3.36
2023-04-01T16:28:15.063Z,3.33
2023-04-01T16:31:05.878Z,3.32
2023-04-01T16:33:40.975Z,3.26
2023-04-01T16:36:25.626Z,3.26
2023-04-01T16:38:51.862Z,3.24
2023-04-01T16:41:24.700Z,3.22
2023-04-01T16:43:57.044Z,3.28
2023-04-01T16:46:41.199Z,3.28
2023-04-01T16:49:13.888Z,3.23
2023-04-01T16:52:11.976Z,3.20
2023-04-01T16:54:48.669Z,3.18
2023-04-01T16:57:20.569Z,3.22
2023-04-01T17:00:04.344Z,3.21
2023-04-01T17:02:44.020Z,3.19
2023-04-01T17:05:16.921Z,3.21
2023-04-01T17:08:18.509Z,3.16
2023-04-01T17:11:23.698Z,3.19
2023-04-01T17:14:04.627Z,3.22
2023-04-01T17:16:49.224Z,3.21
2023-04-01T17:19:37.376Z,3.13
2023-04-01T17:22:18.370Z,3.12
2023-04-01T17:24:53.737Z,3.11
2023-04-01T17:27:38.135Z,3.11
2023-04-01T17:30:23.356Z,3.12
2023-04-01T17:33:11.624Z,3.02
2023-04-01T17:36:09.668Z,3.06
2023-04-01T17:39:10.175Z,3.13
2023-04-01T17:41:51.698Z,3.08
2023-04-01T17:44:41.279Z,3.15
2023-04-01T17:47:28.176Z,3.07
2023-04-01T17:50:08.110Z,3.07
2023-04-01T17:52:43.493Z,3.02
2023-04-01T17:55:18.781Z,3.08
2023-04-01T17:57:53.508Z,3.12
2023-04-01T18:00:30.134Z,3.13
2023-04-01T18:03:25.015Z,3.08
2023-04-01T18:06:08.696Z,3.07
2023-04-01T18:08:56.766Z,3.03
2023-04-01T18:11:41.806Z,2.96
2023-04-01T18:14:31.083Z,2.95
2023-04-01T18:17:16.404Z,2.81
2023-04-01T18:20:20.437Z,2.71
2023-04-01T18:22:55.354Z,2.68
2023-04-01T18:25:37.564Z,2.64
2023-04-01T18:28:36.362Z,2.66
2023-04-01T18:31:02.738Z,2.56
2023-04-01T18:33:43.801Z,2.54
2023-04-01T18:36:59.774Z,2.50
2023-04-01T18:39:40.999Z,2.50
2023-04-01T18:42:44.868Z,2.43
2023-04-01T18:45:30.084Z,2.42
2023-04-01T18:48:21.387Z,2.41
2023-04-01T18:50:58.225Z,2.47
2023-04-01T18:53:47.952Z,2.50
2023-04-01T18:56:28.606Z,2.43
2023-04-01T18:59:17.891Z,2.40
2023-04-01T19:01:56.563Z,2.40
2023-04-01T19:04:41.237Z,2.43
2023-04-01T19:07:42.155Z,2.46
2023-04-01T19:10:33.059Z,2.46
2023-04-01T19:13:20.580Z,2.40
2023-04-01T19:16:10.029Z,2.34
2023-04-01T19:18:57.374Z,2.20
2023-04-01T19:21:39.240Z,2.15
2023-04-01T19:24:18.150Z,2.18
2023-04-01T19:27:13.698Z,2.17
2023-04-01T19:30:05.439Z,2.15
2023-04-01T19:32:58.252Z,2.14
2023-04-01T19:35:27.539Z,2.07
2023-04-01T19:38:06.246Z,2.13
2023-04-01T19:40:40.893Z,2.10
2023-04-01T19:43:19.823Z,2.07
2023-04-01T19:46:29.428Z,2.07
2023-04-01T19:49:26.540Z,2.06
2023-04-01T19:52:21.025Z,2.09
2023-04-01T19:55:31.469Z,2.09
2023-04-01T19:58:17.501Z,2.08
2023-04-01T20:00:48.482Z,2.04
2023-04-01T20:03:32.881Z,1.87
2023-04-01T20:06:23.968Z,1.73
2023-04-01T20:09:23.173Z,1.66
2023-04-01T20:11:58.541Z,1.52
2023-04-01T20:14:37.412Z,1.43
2023-04-01T20:17:27.484Z,1.42
2023-04-01T20:20:09.357Z,1.38
2023-04-01T20:22:35.673Z,1.35
2023-04-01T20:25:20.810Z,1.30
2023-04-01T20:27:56.334Z,1.26
2023-04-01T20:31:02.624Z,1.22
2023-04-01T20:34:04.503Z,1.18
2023-04-01T20:36:55.569Z,1.13
2023-04-01T20:39:41.471Z,1.07
2023-04-01T20:42:35.802Z,1.05
2023-04-01T20:45:19.605Z,1.06
2023-04-01T20:48:23.713Z,1.04
2023-04-01T20:50:55.102Z,1.01
2023-04-01T20:53:29.336Z,1.00
2023-04-01T20:56:29.731Z,1.00
2023-04-01T20:59:14.878Z,1.06
2023-04-01T21:02:12.881Z,1.07
2023-04-01T21:05:17.064Z,1.05
2023-04-01T21:07:49.525Z,1.01
2023-04-01T21:10:34.171Z,0.94
2023-04-01T21:13:19.091Z,0.91
2023-04-01T21:15:54.456Z,0.83
2023-04-01T21:18:39.724Z,0.79
2023-04-01T21:21:25.651Z,0.80
2023-04-01T21:24:10.528Z,0.78
2023-04-01T21:26:46.166Z,0.77
2023-04-01T21:29:32.896Z,0.72
2023-04-01T21:32:21.286Z,0.70
2023-04-01T21:35:12.456Z,0.73
2023-04-01T21:37:44.677Z,0.71
2023-04-01T21:40:32.374Z,0.66
2023-04-01T21:43:18.761Z,0.65
2023-04-01T21:46:33.664Z,0.59
2023-04-01T21:49:22.769Z,0.57
2023-04-01T21:52:03.030Z,0.54
2023-04-01T21:55:16.852Z,0.51
2023-04-01T21:58:17.008Z,0.52
2023-04-01T22:01:11.227Z,0.45
2023-04-01T22:04:03.373Z,0.44
2023-04-01T22:06:35.279Z,0.45
2023-04-01T22:09:25.799Z,0.42
2023-04-01T22:12:16.003Z,0.43
2023-04-01T22:14:53.861Z,0.43
2023-04-01T22:17:38.781Z,0.40
2023-04-01T22:20:24.134Z,0.32
2023-04-01T22:23:01.473Z,0.31
2023-04-01T22:25:43.188Z,0.31
2023-04-01T22:28:30.770Z,0.27
2023-04-01T22:31:01.960Z,0.25
2023-04-01T22:34:12.780Z,0.19
2023-04-01T22:36:56.368Z,0.19
2023-04-01T22:39:37.246Z,0.17
2023-04-01T22:42:16.688Z,0.20
2023-04-01T22:45:06.988Z,0.18
2023-04-01T22:48:04.235Z,0.18
2023-04-01T22:50:41.353Z,0.15
2023-04-01T22:53:14.330Z,0.17
2023-04-01T22:55:53.701Z,0.14
2023-04-01T22:58:31.737Z,0.20
2023-04-01T23:01:02.304Z,0.19
2023-04-01T23:03:41.275Z,0.16
2023-04-01T23:06:18.340Z,0.22
2023-04-01T23:08:54.252Z,0.18
2023-04-01T23:11:29.351Z,0.11
2023-04-01T23:14:24.111Z,0.14
2023-04-01T23:17:33.552Z,0.11
2023-04-01T23:20:07.950Z,0.13
2023-04-01T23:22:44.416Z,0.20
2023-04-01T23:25:37.625Z,0.23
2023-04-01T23:28:16.627Z,0.21
2023-04-01T23:30:42.860Z,0.23
2023-04-01T23:33:32.205Z,0.28
2023-04-01T23:36:11.498Z,0.29
2023-04-01T23:38:42.397Z,0.29
2023-04-01T23:41:17.602Z,0.30
2023-04-01T23:43:46.039Z,0.33
2023-04-01T23:46:13.961Z,0.32
2023-04-01T23:48:43.407Z,0.35
2023-04-01T23:51:37.305Z,0.30
2023-04-01T23:54:12.006Z,0.31
2023-04-01T23:56:41.934Z,0.28
2023-04-01T23:59:19.075Z,0.25
